Terminal Aerodrome Forecast
Issued by NWS Pueblo, CO

Home | Current Version | Previous Version | Text Only | Print | Product List | Glossary On
Versions: 1 2 3 4 5 6 7 8 9 10 11 12 13 14 15 16 17 18 19 20 21 22 23 24 25 26 27 28 29 30
000
FTUS45 KPUB 210526
TAFCOS
TAF
KCOS 210526Z 2106/2206 VRB06KT P6SM SCT120 SCT200
     FM211300 16007KT P6SM SCT120 BKN250
     FM212000 18012G22KT P6SM SCT110 BKN200
     FM220200 23009KT P6SM SCT110 BKN200=

USA.gov is the U.S. government's official web portal to all federal, state and local government web resources and services.